Time;durP1;ratioP1;P1;durP2;ratioP2;P2;SDS_P1;SDS_P2;PMS_P1;PMS_P2;Temp;Humidity;BMP_temperature;BMP_pressure;BME280_temperature;BME280_humidity;BME280_pressure;Samples;Min_cycle;Max_cycle;Signal;HPM_P1;HPM_P2
2021/04/24 00:00:31;;;;;;;18.23;8.08;;;;;;;5.23;100.00;101384.02;1760624;81;21217;-59
2021/04/24 00:02:59;;;;;;;16.20;7.35;;;;;;;5.25;100.00;101378.25;1774706;80;21626;-59
2021/04/24 00:05:31;;;;;;;17.52;7.55;;;;;;;5.26;100.00;101374.70;1760647;81;21176;-58
2021/04/24 00:08:01;;;;;;;14.65;7.17;;;;;;;5.26;100.00;101374.70;1774617;80;21272;-59
2021/04/24 00:10:33;;;;;;;17.42;7.10;;;;;;;5.34;100.00;101381.33;1760472;81;21188;-59
2021/04/24 00:13:02;;;;;;;11.03;7.42;;;;;;;5.36;100.00;101380.88;1774644;80;21587;-59
2021/04/24 00:15:30;;;;;;;11.93;6.97;;;;;;;5.38;100.00;101383.55;1760615;81;21042;-58
2021/04/24 00:17:59;;;;;;;14.68;7.20;;;;;;;5.40;100.00;101389.74;1774233;80;21102;-59
2021/04/24 00:20:27;;;;;;;15.72;7.75;;;;;;;5.40;100.00;101382.63;1760573;81;21832;-58
2021/04/24 00:22:55;;;;;;;14.38;7.70;;;;;;;5.38;100.00;101387.08;1774656;80;21190;-58
2021/04/24 00:25:23;;;;;;;19.17;8.28;;;;;;;5.40;100.00;101381.77;1760475;81;21187;-58
2021/04/24 00:27:51;;;;;;;12.58;6.90;;;;;;;5.41;100.00;101389.72;1774629;80;21157;-59
2021/04/24 00:30:20;;;;;;;16.62;7.87;;;;;;;5.41;100.00;101396.83;1760561;81;21592;-59
2021/04/24 00:32:48;;;;;;;11.78;7.47;;;;;;;5.38;100.00;101389.73;1774677;80;21200;-58
2021/04/24 00:35:18;;;;;;;11.50;7.22;;;;;;;5.35;100.00;101400.39;1760442;81;21078;-59
2021/04/24 00:37:46;;;;;;;16.77;7.08;;;;;;;5.37;100.00;101401.27;1774675;80;21131;-58
2021/04/24 00:40:15;;;;;;;16.65;7.95;;;;;;;5.36;100.00;101401.28;1760410;81;21105;-59
2021/04/24 00:42:42;;;;;;;11.83;6.85;;;;;;;5.35;100.00;101400.39;1774672;80;21166;-59
2021/04/24 00:45:11;;;;;;;15.15;7.80;;;;;;;5.33;100.00;101402.17;1758388;81;21367;-59
2021/04/24 00:47:39;;;;;;;15.65;7.90;;;;;;;5.29;100.00;101408.39;1771447;81;21488;-59
2021/04/24 00:50:09;;;;;;;15.72;8.48;;;;;;;5.29;100.00;101408.39;1754805;81;21034;-58
2021/04/24 00:52:36;;;;;;;14.40;7.55;;;;;;;5.29;100.00;101411.05;1771321;81;21084;-59
2021/04/24 00:55:05;;;;;;;15.55;8.08;;;;;;;5.30;100.00;101414.14;1754913;81;21106;-58
2021/04/24 00:57:33;;;;;;;14.05;8.23;;;;;;;5.30;100.00;101414.14;1786220;79;21387;-58
2021/04/24 01:00:00;;;;;;;14.33;8.65;;;;;;;5.28;100.00;101406.63;1796260;79;21082;-59
2021/04/24 01:02:27;;;;;;;19.07;9.18;;;;;;;5.25;100.00;101399.98;1825742;78;21298;-59
2021/04/24 01:04:55;;;;;;;16.05;8.68;;;;;;;5.27;100.00;101408.84;1825767;78;21202;-59
2021/04/24 01:07:22;;;;;;;16.02;8.23;;;;;;;5.27;100.00;101408.84;1825862;78;21186;-58
2021/04/24 01:09:50;;;;;;;17.50;8.63;;;;;;;5.25;100.00;101414.61;1825945;78;21379;-58
2021/04/24 01:12:17;;;;;;;13.43;8.10;;;;;;;5.27;100.00;101415.48;1825729;78;21159;-58
2021/04/24 01:14:45;;;;;;;13.45;8.00;;;;;;;5.31;100.00;101419.91;1825831;78;21151;-59
2021/04/24 01:17:12;;;;;;;18.50;9.15;;;;;;;5.31;100.00;101418.58;1825769;78;21130;-58
2021/04/24 01:19:40;;;;;;;14.58;8.73;;;;;;;5.29;100.00;101416.37;1825763;78;21107;-59
2021/04/24 01:22:09;;;;;;;19.27;8.70;;;;;;;5.29;100.00;101416.37;1825820;78;21385;-58
2021/04/24 01:24:37;;;;;;;14.73;8.73;;;;;;;5.29;100.00;101424.34;1825730;78;21488;-58
2021/04/24 01:27:06;;;;;;;15.40;8.40;;;;;;;5.28;100.00;101422.58;1825903;78;21504;-59
2021/04/24 01:29:36;;;;;;;14.83;9.53;;;;;;;5.28;100.00;101429.22;1825865;78;21582;-59
2021/04/24 01:32:04;;;;;;;17.05;9.35;;;;;;;5.29;100.00;101432.32;1825938;78;21563;-59
2021/04/24 01:34:32;;;;;;;17.42;8.83;;;;;;;5.26;100.00;101437.65;1825884;78;21188;-59
2021/04/24 01:37:00;;;;;;;14.78;8.48;;;;;;;5.24;100.00;101437.64;1825823;78;21060;-58
2021/04/24 01:39:29;;;;;;;17.82;8.45;;;;;;;5.22;100.00;101437.22;1825661;78;21040;-58
2021/04/24 01:41:57;;;;;;;12.43;8.45;;;;;;;5.21;100.00;101441.64;1825835;78;21468;-58
2021/04/24 01:44:24;;;;;;;16.65;9.08;;;;;;;5.21;100.00;101440.77;1825782;78;21111;-59
2021/04/24 01:46:53;;;;;;;22.60;9.50;;;;;;;5.16;99.98;101434.98;1825731;78;21353;-58
2021/04/24 01:49:21;;;;;;;18.60;8.53;;;;;;;5.20;99.91;101448.30;1825985;78;21709;-58
2021/04/24 01:51:49;;;;;;;16.93;8.75;;;;;;;5.20;99.80;101448.30;1825825;78;21163;-59
2021/04/24 01:54:16;;;;;;;16.85;9.50;;;;;;;5.18;99.69;101446.06;1825958;78;21686;-58
2021/04/24 01:56:53;;;;;;;14.50;9.15;;;;;;;5.18;99.64;101446.06;1819488;78;21208;-58
2021/04/24 01:59:24;;;;;;;16.75;9.50;;;;;;;5.18;99.51;101451.38;1801526;79;21534;-58
2021/04/24 02:01:54;;;;;;;22.30;11.53;;;;;;;5.13;99.43;101450.95;1764288;81;21196;-58
2021/04/24 02:04:23;;;;;;;17.40;10.30;;;;;;;5.11;99.38;101458.04;1776986;80;21186;-58
2021/04/24 02:06:51;;;;;;;18.27;9.68;;;;;;;5.09;99.31;101457.16;1764362;81;21064;-59
2021/04/24 02:09:19;;;;;;;20.02;10.03;;;;;;;5.07;99.26;101454.05;1764476;81;21175;-58
2021/04/24 02:12:13;;;;;;;20.43;11.35;;;;;;;5.07;99.24;101448.30;1776934;80;21554;-58
2021/04/24 02:14:46;;;;;;;21.73;10.58;;;;;;;5.06;99.23;101453.17;1764280;81;21058;-58
2021/04/24 02:17:20;;;;;;;21.00;11.45;;;;;;;5.05;99.27;101450.08;1777052;80;21562;-59
2021/04/24 02:19:55;;;;;;;22.50;10.70;;;;;;;5.10;99.21;101448.30;1873150;76;22803;-58
2021/04/24 02:22:23;;;;;;;19.48;10.00;;;;;;;5.02;99.17;101444.77;1841143;78;20918;-60
2021/04/24 02:24:55;;;;;;;15.32;9.58;;;;;;;5.03;99.21;101450.53;1841044;78;21802;-59
2021/04/24 02:27:23;;;;;;;19.95;10.23;;;;;;;5.02;99.22;101450.09;1841077;78;20925;-57
2021/04/24 02:29:50;;;;;;;19.20;9.80;;;;;;;5.04;99.25;101453.63;1841020;78;21136;-59
2021/04/24 02:32:19;;;;;;;18.05;10.75;;;;;;;5.03;99.18;101457.17;1841086;78;21127;-58
2021/04/24 02:34:47;;;;;;;18.95;10.28;;;;;;;5.01;99.20;101454.96;1841109;78;20926;-59
2021/04/24 02:37:15;;;;;;;14.95;8.95;;;;;;;4.99;99.12;101457.61;1841206;77;21485;-59
2021/04/24 02:39:47;;;;;;;20.12;9.88;;;;;;;4.99;99.19;101463.38;1841032;77;20938;-59
2021/04/24 02:42:18;;;;;;;19.25;9.85;;;;;;;4.99;99.19;101463.38;1840975;78;21152;-58
2021/04/24 02:44:45;;;;;;;17.62;9.95;;;;;;;5.00;99.18;101462.49;1841179;78;21531;-58
2021/04/24 02:47:13;;;;;;;23.42;11.65;;;;;;;5.00;99.07;101467.81;1840998;77;21052;-58
2021/04/24 02:49:41;;;;;;;23.67;10.38;;;;;;;4.99;99.00;101465.58;1841124;78;21690;-59
2021/04/24 02:52:09;;;;;;;18.27;10.32;;;;;;;4.98;98.96;101465.14;1840937;78;20985;-58
2021/04/24 02:54:37;;;;;;;20.48;10.60;;;;;;;4.98;98.82;101456.30;1841042;78;21069;-58
2021/04/24 02:57:05;;;;;;;20.60;9.95;;;;;;;4.98;98.82;101456.30;1835706;78;21070;-58
2021/04/24 02:59:33;;;;;;;20.70;10.88;;;;;;;5.00;98.75;101465.16;1828146;78;21038;-58
2021/04/24 03:02:01;;;;;;;20.52;10.53;;;;;;;4.99;98.55;101464.25;1828155;78;21304;-59
2021/04/24 03:04:29;;;;;;;24.82;9.95;;;;;;;4.99;98.55;101464.25;1828046;78;20995;-58
2021/04/24 03:06:57;;;;;;;19.05;9.15;;;;;;;4.98;98.35;101466.93;1828185;78;21154;-58
2021/04/24 03:09:25;;;;;;;16.48;9.50;;;;;;;5.00;98.26;101471.80;1828075;78;21039;-58
2021/04/24 03:11:53;;;;;;;16.42;10.10;;;;;;;5.01;98.09;101465.59;1828261;78;21026;-58
2021/04/24 03:14:20;;;;;;;16.50;10.00;;;;;;;5.02;97.95;101468.70;1828091;78;21342;-58
2021/04/24 03:16:48;;;;;;;17.92;10.82;;;;;;;5.04;97.77;101469.58;1828126;78;21589;-58
2021/04/24 03:19:16;;;;;;;15.53;9.70;;;;;;;5.06;97.63;101473.12;1829912;78;21062;-58
2021/04/24 03:21:44;;;;;;;18.95;10.00;;;;;;;5.11;97.41;101480.64;1831364;78;21023;-57
2021/04/24 03:24:12;;;;;;;16.80;9.98;;;;;;;5.19;97.30;101481.06;1831398;78;20987;-58
2021/04/24 03:26:39;;;;;;;20.10;10.13;;;;;;;5.26;97.02;101478.86;1831603;78;21643;-58
2021/04/24 03:29:07;;;;;;;24.07;10.80;;;;;;;5.33;96.66;101479.28;1831302;78;21177;-58
2021/04/24 03:31:34;;;;;;;18.55;9.68;;;;;;;5.38;96.32;101488.13;1830832;77;21492;-58
2021/04/24 03:34:01;;;;;;;26.23;10.30;;;;;;;5.47;95.89;101491.69;1830855;78;21161;-58
2021/04/24 03:36:29;;;;;;;32.55;9.95;;;;;;;5.61;95.00;101499.64;1830807;78;21046;-58
2021/04/24 03:38:57;;;;;;;24.98;9.85;;;;;;;5.61;95.00;101499.64;1830779;78;21346;-58
2021/04/24 03:41:25;;;;;;;28.77;10.63;;;;;;;5.65;93.32;101502.30;1830680;77;20933;-57
2021/04/24 03:43:52;;;;;;;32.15;11.97;;;;;;;5.65;93.32;101502.30;1830727;78;21117;-58
2021/04/24 03:46:20;;;;;;;36.33;10.60;;;;;;;5.68;93.20;101515.59;1830632;78;21129;-58
2021/04/24 03:48:48;;;;;;;36.17;10.93;;;;;;;5.74;92.89;101504.91;1830811;78;21007;-58
2021/04/24 03:51:16;;;;;;;34.98;10.55;;;;;;;5.84;92.49;101508.44;1830719;78;21666;-58
2021/04/24 03:53:44;;;;;;;27.60;11.00;;;;;;;5.93;91.64;101522.17;1830667;78;20920;-57
2021/04/24 03:56:12;;;;;;;37.37;11.40;;;;;;;6.04;91.40;101518.59;1831507;77;20995;-58
2021/04/24 03:58:40;;;;;;;29.07;11.20;;;;;;;6.10;90.40;101521.26;1849267;77;21001;-58
2021/04/24 04:01:08;;;;;;;34.48;10.63;;;;;;;6.15;89.95;101522.98;1849257;77;21198;-58
2021/04/24 04:03:35;;;;;;;24.05;10.00;;;;;;;6.23;89.33;101523.42;1849254;77;21677;-58
2021/04/24 04:06:04;;;;;;;27.82;10.32;;;;;;;6.30;88.79;101528.72;1849284;77;21056;-57
2021/04/24 04:08:32;;;;;;;21.42;10.03;;;;;;;6.39;88.26;101532.22;1849290;77;20945;-58
2021/04/24 04:11:00;;;;;;;20.08;10.15;;;;;;;6.49;87.47;101529.06;1849310;77;21123;-58
2021/04/24 04:13:28;;;;;;;19.32;9.65;;;;;;;6.58;86.90;101532.56;1849246;77;21437;-58
2021/04/24 04:15:55;;;;;;;23.32;9.38;;;;;;;6.69;86.11;101540.92;1849258;77;21674;-58
2021/04/24 04:18:23;;;;;;;16.90;9.38;;;;;;;6.76;85.49;101541.34;1848797;77;20941;-57
2021/04/24 04:20:54;;;;;;;16.50;8.68;;;;;;;6.88;84.99;101549.24;1846319;77;20981;-58
2021/04/24 04:23:23;;;;;;;24.30;10.32;;;;;;;6.99;84.44;101542.50;1846436;77;22008;-57
2021/04/24 04:25:51;;;;;;;17.65;8.83;;;;;;;7.12;83.88;101545.95;1846272;77;21116;-58
2021/04/24 04:28:20;;;;;;;14.80;8.35;;;;;;;7.20;82.79;101543.23;1846235;77;22307;-58
2021/04/24 04:30:49;;;;;;;21.02;9.25;;;;;;;7.32;82.02;101550.25;1846218;77;21001;-58
2021/04/24 04:33:17;;;;;;;17.25;8.90;;;;;;;7.41;81.48;101551.95;1846255;77;20906;-58
2021/04/24 04:35:45;;;;;;;18.40;8.75;;;;;;;7.50;80.92;101543.85;1846267;77;21040;-58
2021/04/24 04:38:13;;;;;;;19.00;9.10;;;;;;;7.56;80.53;101545.15;1846271;77;21056;-58
2021/04/24 04:40:43;;;;;;;17.17;8.95;;;;;;;7.66;80.08;101543.71;1846211;77;21345;-58
2021/04/24 04:43:10;;;;;;;19.10;8.83;;;;;;;7.78;79.68;101545.37;1846244;77;21543;-58
2021/04/24 04:45:38;;;;;;;17.30;8.73;;;;;;;7.92;78.96;101552.79;1846255;77;21004;-58
2021/04/24 04:48:06;;;;;;;13.72;7.60;;;;;;;8.03;78.49;101551.33;1846327;77;20929;-58
2021/04/24 04:50:36;;;;;;;14.75;7.97;;;;;;;8.17;77.90;101554.70;1846220;77;21473;-58
2021/04/24 04:53:04;;;;;;;13.43;8.18;;;;;;;8.29;77.15;101560.38;1846312;77;21342;-59
2021/04/24 04:55:32;;;;;;;15.50;7.97;;;;;;;8.40;76.74;101556.23;1846205;77;20989;-58
2021/04/24 04:58:00;;;;;;;13.48;7.17;;;;;;;8.54;76.11;101569.45;1833630;77;20987;-58
2021/04/24 05:00:28;;;;;;;14.35;8.23;;;;;;;8.67;75.04;101566.59;1830063;78;21317;-58
2021/04/24 05:02:56;;;;;;;13.65;7.08;;;;;;;8.69;73.87;101575.47;1830127;78;21003;-58
2021/04/24 05:05:25;;;;;;;16.12;7.67;;;;;;;8.73;73.66;101569.16;1830098;78;21320;-58
2021/04/24 05:07:52;;;;;;;18.15;7.90;;;;;;;8.83;73.29;101576.17;1829989;78;21106;-58
2021/04/24 05:10:24;;;;;;;13.35;7.12;;;;;;;8.93;72.60;101578.69;1830178;78;21578;-59
2021/04/24 05:12:52;;;;;;;14.15;7.08;;;;;;;9.03;72.08;101581.67;1830065;78;21574;-59
2021/04/24 05:15:20;;;;;;;12.25;7.12;;;;;;;9.14;71.73;101585.05;1830117;78;21098;-60
2021/04/24 05:17:48;;;;;;;14.28;7.85;;;;;;;9.25;71.79;101578.66;1830044;78;21416;-59
2021/04/24 05:20:16;;;;;;;16.30;7.65;;;;;;;9.37;70.91;101582.46;1830072;77;20932;-59
2021/04/24 05:22:45;;;;;;;14.35;7.22;;;;;;;9.46;70.86;101585.00;1830341;78;20940;-59
2021/04/24 05:25:14;;;;;;;16.82;6.95;;;;;;;9.59;70.24;101578.98;1830357;78;21101;-58
2021/04/24 05:27:45;;;;;;;11.30;6.58;;;;;;;9.74;70.00;101583.16;1830367;78;21094;-58
2021/04/24 05:30:15;;;;;;;14.83;7.12;;;;;;;9.88;68.00;101588.73;1830453;77;21363;-59
2021/04/24 05:32:43;;;;;;;14.20;6.25;;;;;;;9.96;67.64;101589.46;1830298;78;21145;-59
2021/04/24 05:35:13;;;;;;;14.10;7.10;;;;;;;10.04;65.64;101608.08;1830281;78;20979;-59
2021/04/24 05:37:40;;;;;;;10.43;6.45;;;;;;;10.11;65.94;101602.15;1830323;78;20971;-59
2021/04/24 05:40:09;;;;;;;11.28;6.37;;;;;;;10.14;64.47;101598.06;1830333;78;21145;-60
2021/04/24 05:42:36;;;;;;;12.58;6.22;;;;;;;10.16;64.36;101599.78;1830373;77;21182;-59
2021/04/24 05:45:10;;;;;;;14.20;5.87;;;;;;;10.25;64.91;101596.52;1830258;78;20901;-59
2021/04/24 05:47:43;;;;;;;11.57;6.35;;;;;;;10.34;63.57;101599.47;1830245;77;20924;-59
2021/04/24 05:50:13;;;;;;;13.05;6.22;;;;;;;10.39;63.21;101598.91;1830410;78;21166;-59
2021/04/24 05:52:40;;;;;;;12.75;7.50;;;;;;;10.45;62.46;101618.91;1830362;78;21134;-59
2021/04/24 05:55:10;;;;;;;19.25;6.60;;;;;;;10.41;61.51;101602.03;1830421;78;21502;-59
2021/04/24 05:57:38;;;;;;;14.20;6.33;;;;;;;10.39;61.18;101612.31;1831365;77;21457;-59
2021/04/24 06:00:16;;;;;;;13.60;6.25;;;;;;;10.40;61.60;101604.28;1832085;78;20918;-59
2021/04/24 06:02:43;;;;;;;15.20;7.20;;;;;;;10.41;60.56;101604.71;1832053;78;21044;-59
2021/04/24 06:05:12;;;;;;;16.17;6.72;;;;;;;10.36;60.58;101608.36;1832130;78;20961;-59
2021/04/24 06:07:39;;;;;;;12.25;7.12;;;;;;;10.35;62.06;101602.10;1832096;78;21374;-59
2021/04/24 06:10:10;;;;;;;16.25;6.53;;;;;;;10.40;61.73;101602.02;1832152;78;21032;-59
2021/04/24 06:12:38;;;;;;;14.58;6.60;;;;;;;10.49;59.78;101619.75;1832172;78;21540;-59
2021/04/24 06:15:08;;;;;;;16.85;7.08;;;;;;;10.51;60.17;101612.55;1832036;78;21120;-59
2021/04/24 06:17:36;;;;;;;14.95;7.42;;;;;;;10.57;59.60;101611.07;1832003;77;21095;-59
2021/04/24 06:20:06;;;;;;;16.20;7.47;;;;;;;10.65;60.05;101613.59;1831939;77;21394;-58
2021/04/24 06:22:34;;;;;;;12.65;6.87;;;;;;;10.72;59.57;101617.90;1832143;78;21484;-59
2021/04/24 06:25:02;;;;;;;15.08;6.65;;;;;;;10.82;59.80;101618.14;1830619;78;21127;-59
2021/04/24 06:27:29;;;;;;;16.05;7.08;;;;;;;10.95;59.25;101619.22;1831981;78;21131;-60
2021/04/24 06:29:58;;;;;;;16.45;6.62;;;;;;;11.00;58.50;101627.56;1832069;78;21448;-59
2021/04/24 06:32:25;;;;;;;15.80;6.92;;;;;;;11.08;58.97;101619.34;1832135;78;21253;-59
2021/04/24 06:34:53;;;;;;;14.43;6.42;;;;;;;11.16;59.20;101622.75;1831958;77;21087;-59
2021/04/24 06:37:21;;;;;;;16.10;7.15;;;;;;;11.27;58.35;101626.97;1832102;77;21099;-59
2021/04/24 06:39:49;;;;;;;12.23;7.20;;;;;;;11.33;58.01;101624.13;1832010;78;21152;-59
2021/04/24 06:42:18;;;;;;;11.15;5.37;;;;;;;11.37;57.71;101617.75;1832093;78;21055;-59
2021/04/24 06:44:45;;;;;;;13.60;5.60;;;;;;;11.40;56.92;101625.77;1832122;78;21431;-59
2021/04/24 06:47:13;;;;;;;13.15;6.05;;;;;;;11.41;54.85;101633.34;1832082;78;21432;-60
2021/04/24 06:49:42;;;;;;;16.60;6.05;;;;;;;11.36;54.78;101636.13;1831980;77;21151;-59
2021/04/24 06:52:10;;;;;;;15.32;6.05;;;;;;;11.35;54.65;101640.21;1832014;78;21107;-60
2021/04/24 06:54:38;;;;;;;12.03;5.17;;;;;;;11.39;53.81;101629.37;1832052;78;21123;-59
2021/04/24 06:57:06;;;;;;;14.25;6.00;;;;;;;11.43;54.62;101639.11;1831321;78;21703;-59
2021/04/24 06:59:34;;;;;;;9.33;5.83;;;;;;;11.53;54.88;101642.90;1830257;78;21067;-59
2021/04/24 07:02:02;;;;;;;10.48;5.80;;;;;;;11.57;54.19;101642.80;1830193;77;21106;-59
2021/04/24 07:04:30;;;;;;;13.85;4.90;;;;;;;11.61;54.40;101628.84;1830360;78;21067;-60
2021/04/24 07:06:57;;;;;;;13.15;5.40;;;;;;;11.67;53.48;101638.52;1830462;77;21054;-60
2021/04/24 07:09:25;;;;;;;12.55;5.50;;;;;;;11.73;52.81;101639.25;1830453;77;21334;-60
2021/04/24 07:11:53;;;;;;;8.55;4.60;;;;;;;11.87;52.59;101636.68;1830410;78;21070;-59
2021/04/24 07:14:21;;;;;;;9.48;4.97;;;;;;;11.97;51.87;101634.63;1830372;78;20968;-60
2021/04/24 07:16:49;;;;;;;6.15;4.30;;;;;;;12.03;52.03;101623.27;1830475;78;21094;-59
2021/04/24 07:19:18;;;;;;;11.45;4.55;;;;;;;12.12;50.93;101627.98;1830290;78;21129;-57
2021/04/24 07:21:46;;;;;;;7.58;4.20;;;;;;;12.11;50.97;101622.19;1830493;78;21498;-59
2021/04/24 07:24:13;;;;;;;6.80;4.08;;;;;;;12.21;50.24;101630.89;1830452;78;21039;-59
2021/04/24 07:26:41;;;;;;;10.55;5.72;;;;;;;12.38;50.04;101629.95;1830539;78;20987;-59
2021/04/24 07:29:08;;;;;;;8.73;4.42;;;;;;;12.56;49.75;101631.22;1830372;78;21129;-59
2021/04/24 07:31:36;;;;;;;7.60;4.15;;;;;;;12.66;49.73;101625.55;1830567;77;21046;-59
2021/04/24 07:34:04;;;;;;;7.92;4.22;;;;;;;12.79;48.97;101627.41;1830472;77;21457;-59
2021/04/24 07:36:32;;;;;;;9.73;5.22;;;;;;;12.89;49.02;101633.81;1830420;78;21116;-59
2021/04/24 07:39:03;;;;;;;11.85;4.42;;;;;;;13.02;48.93;101630.76;1813837;78;21170;-59
2021/04/24 07:41:30;;;;;;;13.48;6.05;;;;;;;13.14;48.64;101642.47;1799401;79;21122;-59
2021/04/24 07:43:58;;;;;;;9.53;4.78;;;;;;;13.14;48.15;101650.55;1799542;79;21106;-60
2021/04/24 07:46:26;;;;;;;7.90;4.35;;;;;;;13.10;48.61;101640.80;1799497;79;21685;-60
2021/04/24 07:48:54;;;;;;;13.65;5.33;;;;;;;12.95;48.08;101641.30;1799412;79;21123;-58
2021/04/24 07:51:22;;;;;;;9.48;4.45;;;;;;;12.77;49.29;101640.93;1799384;79;21119;-58
2021/04/24 07:53:50;;;;;;;7.37;4.55;;;;;;;12.77;49.74;101635.55;1799525;79;21116;-60
2021/04/24 07:56:18;;;;;;;15.90;5.05;;;;;;;12.88;49.43;101629.36;1802007;78;21139;-59
2021/04/24 07:58:46;;;;;;;12.10;4.70;;;;;;;13.10;49.27;101636.77;1830375;78;21605;-62
2021/04/24 08:01:16;;;;;;;6.85;4.03;;;;;;;13.25;48.38;101641.27;1830337;78;21054;-59
2021/04/24 08:03:46;;;;;;;14.47;4.78;;;;;;;13.31;47.86;101641.05;1830455;78;20912;-60
2021/04/24 08:06:14;;;;;;;7.83;3.95;;;;;;;13.28;47.65;101627.25;1830378;78;21062;-60
2021/04/24 08:08:41;;;;;;;7.45;4.08;;;;;;;13.33;47.81;101633.80;1830438;78;21082;-59
2021/04/24 08:11:10;;;;;;;8.13;4.37;;;;;;;13.38;47.66;101631.87;1830398;78;21454;-60
2021/04/24 08:13:37;;;;;;;9.80;4.37;;;;;;;13.52;47.81;101633.23;1830351;78;21047;-60
2021/04/24 08:16:05;;;;;;;9.80;4.08;;;;;;;13.62;47.03;101641.44;1830477;78;21106;-59
2021/04/24 08:18:33;;;;;;;9.38;4.30;;;;;;;13.67;46.88;101633.19;1830471;78;21050;-59
2021/04/24 08:21:00;;;;;;;8.60;3.92;;;;;;;13.63;45.23;101641.86;1830432;77;21530;-58
2021/04/24 08:23:28;;;;;;;8.15;3.87;;;;;;;13.51;45.47;101640.91;1830502;78;21186;-60
2021/04/24 08:25:55;;;;;;;8.60;4.33;;;;;;;13.49;46.14;101638.28;1830433;78;21189;-60
2021/04/24 08:28:23;;;;;;;11.57;4.22;;;;;;;13.57;46.26;101644.73;1830376;78;21125;-60
2021/04/24 08:30:51;;;;;;;7.08;3.65;;;;;;;13.67;45.82;101644.86;1830429;78;21098;-60
2021/04/24 08:33:18;;;;;;;8.88;3.92;;;;;;;13.72;45.47;101629.89;1830465;78;21177;-60
2021/04/24 08:35:47;;;;;;;6.37;3.60;;;;;;;13.71;45.37;101641.61;1830371;78;21189;-59
2021/04/24 08:38:15;;;;;;;10.15;4.60;;;;;;;13.61;45.12;101638.34;1830417;77;21546;-59
2021/04/24 08:40:42;;;;;;;8.28;4.25;;;;;;;13.54;45.15;101636.31;1830320;78;21518;-59
2021/04/24 08:43:10;;;;;;;10.15;4.17;;;;;;;13.54;45.09;101634.06;1830404;77;20972;-60
2021/04/24 08:45:38;;;;;;;16.27;5.50;;;;;;;13.58;45.89;101640.66;1830411;78;21038;-59
2021/04/24 08:48:08;;;;;;;8.43;3.40;;;;;;;13.69;44.94;101624.13;1814818;78;21063;-60
2021/04/24 08:50:36;;;;;;;7.28;3.58;;;;;;;13.86;44.40;101626.71;1830245;78;21086;-60
2021/04/24 08:53:04;;;;;;;6.50;3.20;;;;;;;14.03;44.46;101618.88;1830412;78;21063;-59
2021/04/24 08:55:38;;;;;;;6.22;3.15;;;;;;;14.19;42.41;101616.99;1830346;78;21120;-60
2021/04/24 08:58:06;;;;;;;5.15;3.17;;;;;;;14.23;42.70;101625.38;1830428;77;21459;-58
2021/04/24 09:00:37;;;;;;;8.75;3.67;;;;;;;14.35;42.78;101624.53;1830468;77;21193;-58
2021/04/24 09:03:08;;;;;;;6.17;2.95;;;;;;;14.52;42.65;101622.09;1830321;78;21141;-59
2021/04/24 09:05:36;;;;;;;6.37;3.20;;;;;;;14.61;42.69;101616.81;1829932;77;21050;-58
2021/04/24 09:08:06;;;;;;;7.53;3.10;;;;;;;14.66;42.89;101624.71;1830284;78;21088;-59
2021/04/24 09:10:42;;;;;;;8.98;3.33;;;;;;;14.63;42.37;101623.03;1830440;78;21022;-59
2021/04/24 09:13:20;;;;;;;10.30;3.35;;;;;;;14.66;42.51;101623.36;1830392;78;21834;-58
2021/04/24 09:15:48;;;;;;;10.45;3.33;;;;;;;14.76;41.97;101623.47;1830338;78;21078;-58
2021/04/24 09:18:16;;;;;;;7.80;3.45;;;;;;;14.79;42.14;101627.40;1830410;78;21043;-58
2021/04/24 09:20:52;;;;;;;10.63;3.55;;;;;;;14.78;42.45;101620.23;1828119;78;21046;-59
2021/04/24 09:23:23;;;;;;;9.33;3.45;;;;;;;14.70;42.26;101623.20;1824395;78;21171;-58
2021/04/24 09:26:06;;;;;;;8.23;3.10;;;;;;;14.69;41.82;101622.78;1824185;78;21315;-58
2021/04/24 09:28:46;;;;;;;8.78;3.47;;;;;;;14.76;42.15;101620.77;1824298;78;21161;-59
2021/04/24 09:31:24;;;;;;;10.63;3.33;;;;;;;14.81;41.79;101609.77;1824192;78;21062;-58
2021/04/24 09:33:57;;;;;;;8.43;3.42;;;;;;;14.71;42.28;101620.08;1823975;78;21122;-58
2021/04/24 09:36:37;;;;;;;11.28;3.95;;;;;;;14.75;42.91;101617.66;1824237;77;21050;-58
2021/04/24 09:39:09;;;;;;;6.67;3.70;;;;;;;14.90;42.62;101618.39;1824330;78;21346;-58
2021/04/24 09:41:41;;;;;;;4.92;2.75;;;;;;;14.96;41.88;101626.73;1824230;78;21480;-60
2021/04/24 09:44:10;;;;;;;11.75;4.00;;;;;;;14.85;41.35;101623.10;1824207;78;21141;-58
2021/04/24 09:46:53;;;;;;;6.83;3.20;;;;;;;14.77;41.67;101621.18;1824194;78;21154;-59
2021/04/24 09:49:31;;;;;;;10.25;3.35;;;;;;;14.69;41.46;101613.80;1824191;77;21102;-59
2021/04/24 09:52:06;;;;;;;5.62;3.58;;;;;;;14.65;41.59;101620.25;1824317;78;21176;-58
2021/04/24 09:54:37;;;;;;;7.33;3.27;;;;;;;14.74;42.13;101615.91;1824234;78;21468;-58
2021/04/24 09:57:09;;;;;;;9.23;3.62;;;;;;;14.88;42.30;101621.62;1824246;78;21063;-59
2021/04/24 09:59:57;;;;;;;7.90;3.95;;;;;;;15.00;41.11;101612.16;1824159;78;21039;-58
2021/04/24 10:02:38;;;;;;;5.97;3.42;;;;;;;15.03;40.81;101605.77;1824219;78;21023;-59
2021/04/24 10:05:17;;;;;;;10.63;3.98;;;;;;;15.05;40.70;101605.23;1824333;78;21503;-58
2021/04/24 10:07:56;;;;;;;12.37;3.90;;;;;;;15.07;40.78;101614.15;1824140;78;21046;-57
2021/04/24 10:10:36;;;;;;;11.20;3.20;;;;;;;15.03;40.90;101608.47;1824279;78;21051;-58
2021/04/24 10:13:08;;;;;;;7.15;3.40;;;;;;;15.08;40.98;101602.40;1824188;78;21172;-57
2021/04/24 10:15:41;;;;;;;6.33;2.90;;;;;;;15.23;41.10;101591.92;1824306;78;21050;-59
2021/04/24 10:18:11;;;;;;;10.98;3.47;;;;;;;15.37;40.45;101592.23;1824197;78;21356;-59
2021/04/24 10:20:42;;;;;;;6.60;3.20;;;;;;;15.41;39.92;101600.63;1825050;78;21095;-58
2021/04/24 10:23:11;;;;;;;7.87;3.15;;;;;;;15.32;39.96;101594.23;1830458;78;22211;-59
2021/04/24 10:25:40;;;;;;;6.87;3.22;;;;;;;15.27;40.13;101593.55;1830260;78;21130;-59
2021/04/24 10:28:08;;;;;;;6.25;3.58;;;;;;;15.24;40.27;101585.09;1830391;78;21128;-59
2021/04/24 10:30:41;;;;;;;8.53;3.00;;;;;;;15.25;40.20;101590.03;1830238;78;21353;-59
2021/04/24 10:33:08;;;;;;;4.35;2.65;;;;;;;15.34;39.82;101581.53;1830296;78;21047;-59
2021/04/24 10:35:36;;;;;;;8.23;2.98;;;;;;;15.50;39.75;101578.20;1830209;78;21031;-60
2021/04/24 10:38:04;;;;;;;8.88;2.98;;;;;;;15.67;39.90;101571.59;1830372;78;20924;-59
2021/04/24 10:40:33;;;;;;;7.75;3.02;;;;;;;15.85;39.59;101573.09;1764929;78;21094;-59
2021/04/24 10:43:00;;;;;;;7.83;3.05;;;;;;;15.90;39.21;101588.17;1830469;77;21536;-60
2021/04/24 10:45:33;;;;;;;5.00;2.95;;;;;;;15.91;38.90;101583.66;1830451;78;21054;-59
2021/04/24 10:48:02;;;;;;;4.60;2.90;;;;;;;15.88;39.29;101589.18;1830476;77;21225;-58
2021/04/24 10:50:48;;;;;;;8.08;3.27;;;;;;;15.89;39.54;101577.45;1830443;77;21161;-59
2021/04/24 10:53:30;;;;;;;7.58;3.17;;;;;;;15.90;39.16;101580.55;1830609;78;27087;-59
2021/04/24 10:56:00;;;;;;;6.90;3.02;;;;;;;15.75;39.23;101584.30;1830566;77;21378;-59
2021/04/24 10:58:29;;;;;;;15.78;3.40;;;;;;;15.61;39.75;101586.73;1832108;78;21484;-59
2021/04/24 11:01:03;;;;;;;7.92;3.65;;;;;;;15.56;40.29;101588.73;1832208;77;21056;-59
2021/04/24 11:03:48;;;;;;;10.53;3.90;;;;;;;15.54;40.91;101585.22;1832482;77;21088;-63
2021/04/24 11:06:23;;;;;;;7.65;3.52;;;;;;;15.47;40.83;101581.44;1832197;78;21103;-58
2021/04/24 11:09:17;;;;;;;9.18;3.27;;;;;;;15.38;41.18;101578.24;1832417;78;21364;-60
2021/04/24 11:11:50;;;;;;;7.67;3.58;;;;;;;15.40;41.10;101578.59;1832234;77;21060;-60
2021/04/24 11:14:19;;;;;;;6.45;4.00;;;;;;;15.42;41.18;101584.81;1816924;78;21013;-58
2021/04/24 11:16:47;;;;;;;6.25;3.37;;;;;;;15.35;41.54;101585.13;1832258;78;21088;-58
2021/04/24 11:19:39;;;;;;;6.28;3.52;;;;;;;15.34;41.25;101585.59;1816362;78;21075;-59
2021/04/24 11:22:42;;;;;;;5.87;3.50;;;;;;;15.28;41.58;101581.80;1836026;77;21433;-58
2021/04/24 11:25:22;;;;;;;7.12;3.40;;;;;;;15.23;41.91;101578.42;1840256;78;21131;-60
2021/04/24 11:28:10;;;;;;;13.22;3.52;;;;;;;15.09;41.88;101584.39;1839615;78;21152;-59
2021/04/24 11:31:02;;;;;;;8.75;3.27;;;;;;;15.01;42.32;101584.70;1840337;78;21037;-60
2021/04/24 11:33:50;;;;;;;8.85;3.67;;;;;;;15.00;42.53;101582.94;1840504;78;21091;-59